Sardis, South Carolina
Current Conditions -  °F | °C
As of 8:53 PM on Wednesday 22 Oct 2014 (Local Time) from KFLO Reporting Station
Clear Clear  
Wind Chill: 58°   Ceiling: Unl
Heat Index: 58°   Visibility: 10mi
Dew Point: 43°   Wind: 9mph
Humidity: 58%   Direction: 340°NNW
Pressure: 30.04"   Gusts: NA
Location:  34.07°N, 79.933°W
Report Text: KFLO 230053Z 34008KT 10SM CLR 14/06 A3004 RMK AO2 SLP170 T01440061
Loading
Personal Weather Stations






























Interactive Weather Map
Tropical Storm Tracking
New forecast layout! Learn more

10-Day Weather Forecast

Advertisements
Track Severe Weather on mobile